Time;durP1;ratioP1;P1;durP2;ratioP2;P2;SDS_P1;SDS_P2;PMS_P1;PMS_P2;Temp;Humidity;BMP_temperature;BMP_pressure;BME280_temperature;BME280_humidity;BME280_pressure;Samples;Min_cycle;Max_cycle;Signal;HPM_P1;HPM_P2
2023/03/17 00:01:28;;;;;;;36.30;33.28;;;8.30;99.90;;;;;;5249850;28;20415;-71
2023/03/17 00:04:00;;;;;;;39.72;36.25;;;8.50;99.90;;;;;;5249990;28;20083;-76
2023/03/17 00:06:32;;;;;;;37.53;34.05;;;8.40;99.90;;;;;;5231752;28;20070;-75
2023/03/17 00:09:03;;;;;;;35.03;31.67;;;8.30;99.90;;;;;;5249647;28;20471;-74
2023/03/17 00:11:34;;;;;;;37.58;34.47;;;8.30;99.90;;;;;;5249535;28;20021;-75
2023/03/17 00:14:05;;;;;;;38.83;35.70;;;8.30;99.90;;;;;;5249446;28;20028;-70
2023/03/17 00:16:41;;;;;;;37.25;34.08;;;8.30;99.90;;;;;;5249324;28;20507;-74
2023/03/17 00:19:23;;;;;;;35.72;32.78;;;8.40;99.90;;;;;;5249386;28;20036;-75
2023/03/17 00:21:54;;;;;;;38.60;35.30;;;8.30;99.90;;;;;;5249388;28;20062;-75
2023/03/17 00:24:26;;;;;;;38.20;34.88;;;8.20;99.90;;;;;;5249315;28;20377;-75
2023/03/17 00:26:57;;;;;;;37.72;34.83;;;8.40;99.90;;;;;;5231233;28;20035;-75
2023/03/17 00:29:28;;;;;;;38.67;35.25;;;8.30;99.90;;;;;;5249031;28;20025;-75
2023/03/17 00:31:59;;;;;;;37.85;34.22;;;8.20;99.90;;;;;;5249001;28;20594;-75
2023/03/17 00:34:30;;;;;;;39.35;35.85;;;8.30;99.90;;;;;;5249186;28;20021;-75
2023/03/17 00:37:01;;;;;;;39.70;35.95;;;8.30;99.90;;;;;;5248885;28;20158;-75
2023/03/17 00:39:31;;;;;;;38.50;35.15;;;8.20;99.90;;;;;;5248894;28;20468;-75
2023/03/17 00:42:03;;;;;;;39.88;36.10;;;8.40;99.90;;;;;;5248853;28;20546;-75
2023/03/17 00:44:34;;;;;;;38.83;35.22;;;8.30;99.90;;;;;;5248921;28;20043;-75
2023/03/17 00:47:06;;;;;;;37.40;33.90;;;8.30;99.90;;;;;;5230676;28;20036;-75
2023/03/17 00:49:36;;;;;;;41.83;38.33;;;8.30;99.90;;;;;;5248671;28;20114;-76
2023/03/17 00:52:08;;;;;;;40.47;37.00;;;8.20;99.90;;;;;;5248179;28;20757;-71
2023/03/17 00:54:38;;;;;;;40.53;37.13;;;8.30;99.90;;;;;;5248679;28;20029;-75
2023/03/17 00:57:11;;;;;;;41.13;37.53;;;8.20;99.90;;;;;;5248345;28;20043;-76
2023/03/17 00:59:42;;;;;;;40.00;36.47;;;8.30;99.90;;;;;;5248412;28;20048;-78
2023/03/17 01:02:13;;;;;;;41.22;37.63;;;8.10;99.90;;;;;;5248264;28;20063;-76
2023/03/17 01:04:44;;;;;;;40.67;36.85;;;8.30;99.90;;;;;;5248409;28;20162;-76
2023/03/17 01:07:16;;;;;;;40.28;36.83;;;8.20;99.90;;;;;;5248026;28;20411;-76
2023/03/17 01:09:47;;;;;;;39.70;36.20;;;8.20;99.90;;;;;;5248184;28;20527;-76
2023/03/17 01:12:20;;;;;;;42.58;38.60;;;8.20;99.90;;;;;;5248262;28;20039;-75
2023/03/17 01:14:55;;;;;;;44.53;40.40;;;8.20;99.90;;;;;;5229716;28;20072;-76
2023/03/17 01:17:26;;;;;;;42.05;38.55;;;8.20;99.90;;;;;;5184206;28;20085;-76
2023/03/17 01:19:58;;;;;;;41.22;37.75;;;8.20;99.90;;;;;;5184471;28;20061;-76
2023/03/17 01:22:29;;;;;;;40.85;36.92;;;8.30;99.90;;;;;;5184039;28;20038;-76
2023/03/17 01:25:00;;;;;;;41.20;37.50;;;8.20;99.90;;;;;;5184116;28;20033;-75
2023/03/17 01:27:35;;;;;;;39.70;35.92;;;8.20;99.90;;;;;;5183952;28;20084;-76
2023/03/17 01:30:08;;;;;;;40.80;37.20;;;8.20;99.90;;;;;;5183999;28;20026;-76
2023/03/17 01:32:45;;;;;;;38.80;35.55;;;8.20;99.90;;;;;;5183979;28;20478;-77
2023/03/17 01:35:28;;;;;;;39.22;35.10;;;8.20;99.90;;;;;;5183777;28;20042;-76
2023/03/17 01:38:08;;;;;;;38.38;34.70;;;8.10;99.90;;;;;;5168276;28;20084;-77
2023/03/17 01:40:48;;;;;;;44.90;40.70;;;8.10;99.90;;;;;;5183873;28;20132;-76
2023/03/17 01:43:28;;;;;;;38.13;34.35;;;8.20;99.90;;;;;;5167415;28;20851;-76
2023/03/17 01:46:16;;;;;;;41.03;37.58;;;8.20;99.90;;;;;;5183676;28;20034;-76
2023/03/17 01:49:04;;;;;;;40.63;37.00;;;8.10;99.90;;;;;;5208441;28;20507;-72
2023/03/17 01:51:48;;;;;;;41.10;37.55;;;8.10;99.90;;;;;;5247402;28;20094;-76
2023/03/17 01:54:28;;;;;;;38.80;35.13;;;8.20;99.90;;;;;;5247456;28;20035;-76
2023/03/17 01:57:22;;;;;;;40.50;36.40;;;8.30;99.90;;;;;;5247346;28;20028;-75
2023/03/17 01:59:58;;;;;;;38.83;35.55;;;8.30;99.90;;;;;;5211985;28;20028;-75
2023/03/17 02:02:40;;;;;;;40.58;36.65;;;8.20;99.90;;;;;;5247432;28;20029;-76
2023/03/17 02:05:15;;;;;;;41.60;37.95;;;8.10;99.90;;;;;;5240175;28;20036;-76
2023/03/17 02:07:47;;;;;;;39.83;35.92;;;8.10;99.90;;;;;;5229364;28;20028;-74
2023/03/17 02:10:20;;;;;;;41.67;37.35;;;8.10;99.90;;;;;;5229088;28;20464;-76
2023/03/17 02:12:58;;;;;;;41.38;37.75;;;8.20;99.90;;;;;;5247294;28;20024;-76
2023/03/17 02:15:45;;;;;;;40.75;37.17;;;8.10;99.90;;;;;;5246916;28;20028;-76
2023/03/17 02:18:18;;;;;;;38.75;35.60;;;8.10;99.90;;;;;;5247181;28;20468;-76
2023/03/17 02:20:49;;;;;;;43.15;39.40;;;8.00;99.90;;;;;;5247157;28;20476;-76
2023/03/17 02:23:22;;;;;;;42.97;39.25;;;8.20;99.90;;;;;;5229010;28;20020;-76
2023/03/17 02:25:53;;;;;;;40.35;36.70;;;8.20;99.90;;;;;;5247112;28;20017;-76
2023/03/17 02:28:28;;;;;;;42.42;38.65;;;8.00;99.90;;;;;;5228973;28;20036;-74
2023/03/17 02:30:59;;;;;;;40.72;37.03;;;8.10;99.90;;;;;;5247008;28;20031;-76
2023/03/17 02:33:30;;;;;;;39.58;36.05;;;8.10;99.90;;;;;;5235041;28;20017;-76
2023/03/17 02:36:02;;;;;;;42.60;38.72;;;8.10;99.90;;;;;;5235301;28;20391;-74
2023/03/17 02:38:33;;;;;;;38.53;35.03;;;8.00;99.90;;;;;;5229197;28;20532;-76
2023/03/17 02:41:06;;;;;;;37.58;34.03;;;8.20;99.90;;;;;;5247058;28;20063;-76
2023/03/17 02:43:37;;;;;;;37.53;34.35;;;8.10;99.90;;;;;;5246944;28;20111;-76
2023/03/17 02:46:07;;;;;;;37.70;34.33;;;8.00;99.90;;;;;;5236864;28;20147;-75
2023/03/17 02:48:39;;;;;;;36.65;33.55;;;8.10;99.90;;;;;;5208340;28;20408;-76
2023/03/17 02:51:12;;;;;;;36.80;33.72;;;8.00;99.90;;;;;;5225903;28;20558;-76
2023/03/17 02:53:43;;;;;;;41.45;37.95;;;8.00;99.90;;;;;;5226057;28;20055;-76
2023/03/17 02:56:14;;;;;;;35.55;32.30;;;8.00;99.90;;;;;;5208187;28;20037;-76
2023/03/17 02:58:45;;;;;;;38.20;34.60;;;8.10;99.90;;;;;;5224784;28;20033;-76
2023/03/17 03:01:17;;;;;;;36.13;32.88;;;8.00;99.90;;;;;;5208212;28;20590;-76
2023/03/17 03:03:48;;;;;;;35.03;32.05;;;8.00;99.90;;;;;;5215622;28;20029;-75
2023/03/17 03:06:18;;;;;;;36.90;33.92;;;7.90;99.90;;;;;;5246749;28;20035;-77
2023/03/17 03:08:50;;;;;;;39.78;36.28;;;7.90;99.90;;;;;;5246557;28;20376;-76
2023/03/17 03:11:22;;;;;;;37.75;34.03;;;8.10;99.90;;;;;;5246501;28;20021;-76
2023/03/17 03:13:53;;;;;;;36.95;33.78;;;8.00;99.90;;;;;;5228707;28;20028;-75
2023/03/17 03:16:24;;;;;;;35.03;31.75;;;8.00;99.90;;;;;;5249178;28;20534;-76
2023/03/17 03:18:54;;;;;;;35.00;32.05;;;7.90;99.90;;;;;;5250465;28;20036;-76
2023/03/17 03:21:26;;;;;;;35.50;32.22;;;8.00;99.90;;;;;;5250400;28;20032;-76
2023/03/17 03:23:57;;;;;;;36.20;33.20;;;8.00;99.90;;;;;;5250426;28;20025;-76
2023/03/17 03:26:28;;;;;;;33.90;31.10;;;7.90;99.90;;;;;;5249957;28;20043;-76
2023/03/17 03:28:59;;;;;;;36.17;32.90;;;8.00;99.90;;;;;;5250252;28;20028;-74
2023/03/17 03:31:29;;;;;;;39.97;36.30;;;7.90;99.90;;;;;;5250220;28;20064;-75
2023/03/17 03:34:00;;;;;;;36.15;33.22;;;8.00;99.90;;;;;;5250124;28;20021;-76
2023/03/17 03:36:32;;;;;;;38.78;35.35;;;7.80;99.90;;;;;;5250075;28;20040;-76
2023/03/17 03:39:03;;;;;;;36.63;33.40;;;7.80;99.90;;;;;;5232228;28;20546;-76
2023/03/17 03:41:34;;;;;;;39.78;36.45;;;7.80;99.90;;;;;;5250116;28;20108;-77
2023/03/17 03:44:05;;;;;;;40.40;36.85;;;7.80;99.90;;;;;;5250046;28;20082;-75
2023/03/17 03:46:36;;;;;;;39.45;35.95;;;7.90;99.90;;;;;;5231868;28;20028;-76
2023/03/17 03:49:06;;;;;;;38.55;35.10;;;7.80;99.90;;;;;;5249897;28;20039;-72
2023/03/17 03:51:37;;;;;;;38.83;35.20;;;7.70;99.90;;;;;;5249679;28;20044;-76
2023/03/17 03:54:08;;;;;;;37.08;33.88;;;7.70;99.90;;;;;;5249898;28;20467;-70
2023/03/17 03:56:39;;;;;;;37.35;33.95;;;7.70;99.90;;;;;;5249812;28;20139;-75
2023/03/17 03:59:10;;;;;;;42.90;39.22;;;7.60;99.90;;;;;;5231773;28;20462;-76
2023/03/17 04:01:40;;;;;;;38.08;34.20;;;7.70;99.90;;;;;;5249827;28;20035;-76
2023/03/17 04:04:11;;;;;;;39.88;36.63;;;7.70;99.90;;;;;;5249733;28;20038;-76
2023/03/17 04:06:42;;;;;;;39.67;35.72;;;7.70;99.90;;;;;;5249637;28;20031;-76
2023/03/17 04:09:13;;;;;;;39.25;35.70;;;7.60;99.90;;;;;;5249522;28;20095;-77
2023/03/17 04:11:44;;;;;;;39.28;35.65;;;7.70;99.90;;;;;;5249413;28;20025;-76
2023/03/17 04:14:15;;;;;;;42.83;38.75;;;7.70;99.90;;;;;;5249527;28;20071;-77
2023/03/17 04:16:46;;;;;;;42.25;38.53;;;7.50;99.90;;;;;;5231207;28;20044;-77
2023/03/17 04:19:17;;;;;;;41.25;37.72;;;7.60;99.90;;;;;;5249342;28;20016;-71
2023/03/17 04:21:47;;;;;;;43.10;39.33;;;7.60;99.90;;;;;;5231346;28;20032;-70
2023/03/17 04:24:19;;;;;;;44.40;40.17;;;7.70;99.90;;;;;;5249225;28;20423;-76
2023/03/17 04:26:50;;;;;;;43.10;39.22;;;7.50;99.90;;;;;;5248578;28;20048;-76
2023/03/17 04:29:21;;;;;;;40.78;36.92;;;7.50;99.90;;;;;;5249156;28;20031;-76
2023/03/17 04:31:52;;;;;;;41.70;37.80;;;7.40;99.90;;;;;;5249084;28;20029;-76
2023/03/17 04:34:23;;;;;;;43.80;39.83;;;7.60;99.90;;;;;;5249006;28;20032;-75
2023/03/17 04:36:54;;;;;;;45.28;41.25;;;7.40;99.90;;;;;;5248917;28;20048;-76
2023/03/17 04:39:25;;;;;;;43.85;39.85;;;7.40;99.90;;;;;;5248865;28;20108;-76
2023/03/17 04:41:56;;;;;;;43.97;39.63;;;7.50;99.90;;;;;;5248822;28;20046;-76
2023/03/17 04:44:26;;;;;;;44.38;39.85;;;7.50;99.90;;;;;;5248817;28;20032;-76
2023/03/17 04:46:57;;;;;;;42.60;38.55;;;7.50;99.90;;;;;;5248617;28;20032;-76
2023/03/17 04:49:28;;;;;;;46.10;41.65;;;7.70;99.90;;;;;;5248632;28;20107;-76
2023/03/17 04:52:00;;;;;;;44.15;39.92;;;7.60;99.90;;;;;;5248420;28;20060;-76
2023/03/17 04:54:31;;;;;;;45.20;40.95;;;7.60;99.90;;;;;;5248639;28;20016;-75
2023/03/17 04:57:01;;;;;;;45.60;41.33;;;7.50;99.90;;;;;;5248150;28;20550;-75
2023/03/17 04:59:32;;;;;;;43.38;39.47;;;7.70;99.90;;;;;;5248450;28;20027;-76
2023/03/17 05:02:03;;;;;;;43.70;39.53;;;7.50;99.90;;;;;;5233466;28;20108;-76
2023/03/17 05:04:35;;;;;;;44.35;40.38;;;7.70;99.90;;;;;;5209922;28;20051;-76
2023/03/17 05:07:06;;;;;;;41.78;37.70;;;7.70;99.90;;;;;;5228021;28;20045;-76
2023/03/17 05:09:37;;;;;;;41.70;37.70;;;7.70;99.90;;;;;;5229229;28;20035;-78
2023/03/17 05:12:08;;;;;;;38.95;35.60;;;7.50;99.90;;;;;;5229727;28;20035;-74
2023/03/17 05:14:40;;;;;;;40.63;37.05;;;7.50;99.90;;;;;;5222952;28;20044;-72
2023/03/17 05:17:11;;;;;;;40.58;36.67;;;7.60;99.90;;;;;;5251147;28;20503;-72
2023/03/17 05:19:42;;;;;;;43.03;38.92;;;7.50;99.90;;;;;;5249994;28;20035;-74
2023/03/17 05:22:13;;;;;;;43.67;39.47;;;7.60;99.90;;;;;;5250569;28;20111;-75
2023/03/17 05:24:43;;;;;;;42.70;38.63;;;7.50;99.90;;;;;;5236758;28;20021;-74
2023/03/17 05:27:14;;;;;;;42.00;38.25;;;7.70;99.90;;;;;;5232783;28;20468;-74
2023/03/17 05:29:46;;;;;;;41.65;37.90;;;7.50;99.90;;;;;;5237516;28;20373;-71
2023/03/17 05:32:17;;;;;;;41.00;37.13;;;7.50;99.90;;;;;;5241074;28;20025;-71
2023/03/17 05:34:48;;;;;;;41.70;37.83;;;7.50;99.90;;;;;;5230766;28;20031;-70
2023/03/17 05:37:19;;;;;;;38.45;35.17;;;7.60;99.90;;;;;;5240822;28;20025;-70
2023/03/17 05:39:52;;;;;;;41.17;37.22;;;7.50;99.90;;;;;;5236714;28;20109;-70
2023/03/17 05:42:23;;;;;;;41.05;37.65;;;7.40;99.90;;;;;;5234185;28;20032;-72
2023/03/17 05:44:54;;;;;;;40.35;37.08;;;7.50;99.90;;;;;;5227319;28;20017;-71
2023/03/17 05:47:25;;;;;;;42.50;39.03;;;7.30;99.90;;;;;;5237618;28;20025;-74
2023/03/17 05:49:56;;;;;;;42.90;38.70;;;7.40;99.90;;;;;;5237893;28;20174;-73
2023/03/17 05:52:27;;;;;;;42.53;39.13;;;7.50;99.90;;;;;;5231097;28;20111;-72
2023/03/17 05:54:58;;;;;;;39.28;35.90;;;7.40;99.90;;;;;;5242517;28;20102;-74
2023/03/17 05:57:29;;;;;;;39.88;36.42;;;7.40;99.90;;;;;;5234152;28;20491;-71
2023/03/17 06:00:00;;;;;;;39.55;36.30;;;7.50;99.90;;;;;;5234823;28;20029;-71
2023/03/17 06:02:31;;;;;;;41.28;37.65;;;7.50;99.90;;;;;;5242544;28;20028;-71
2023/03/17 06:05:02;;;;;;;45.67;41.38;;;7.50;99.90;;;;;;5226094;28;20021;-73
2023/03/17 06:07:35;;;;;;;46.65;41.78;;;7.40;99.90;;;;;;5226121;28;20028;-69
2023/03/17 06:10:06;;;;;;;41.55;37.67;;;7.50;99.90;;;;;;5225961;28;20017;-72
2023/03/17 06:12:36;;;;;;;70.63;62.65;;;7.40;99.90;;;;;;5248256;28;20034;-71
2023/03/17 06:15:08;;;;;;;50.63;45.58;;;7.50;99.90;;;;;;5241800;28;20021;-73
2023/03/17 06:17:39;;;;;;;43.35;39.45;;;7.50;99.90;;;;;;5235442;28;20028;-68
2023/03/17 06:20:11;;;;;;;45.72;41.28;;;7.50;99.90;;;;;;5233122;28;20035;-73
2023/03/17 06:22:42;;;;;;;45.50;41.08;;;7.30;99.90;;;;;;5224546;28;20538;-74
2023/03/17 06:25:14;;;;;;;42.53;38.40;;;7.40;99.90;;;;;;5226077;28;20017;-75
2023/03/17 06:27:45;;;;;;;38.28;34.90;;;7.40;99.90;;;;;;5236072;28;20051;-75
2023/03/17 06:30:16;;;;;;;36.92;33.55;;;7.50;99.90;;;;;;5232250;28;20025;-74
2023/03/17 06:32:47;;;;;;;40.45;36.97;;;7.50;99.90;;;;;;5242357;28;20021;-75
2023/03/17 06:35:18;;;;;;;40.72;37.15;;;7.50;99.90;;;;;;5214156;28;20036;-74
2023/03/17 06:37:48;;;;;;;36.03;32.90;;;7.30;99.90;;;;;;5217951;28;20569;-73
2023/03/17 06:40:20;;;;;;;37.30;34.22;;;7.40;99.90;;;;;;5240588;28;20055;-73
2023/03/17 06:42:51;;;;;;;35.60;32.30;;;7.30;99.90;;;;;;5237705;28;20040;-73
2023/03/17 06:45:22;;;;;;;36.78;33.67;;;7.20;99.90;;;;;;5232459;28;20113;-74
2023/03/17 06:47:52;;;;;;;36.15;33.17;;;7.40;99.90;;;;;;5235175;28;20106;-73
2023/03/17 06:50:24;;;;;;;37.97;34.72;;;7.30;99.90;;;;;;5222738;28;20048;-73
2023/03/17 06:52:55;;;;;;;38.05;35.00;;;7.30;99.90;;;;;;5233937;28;20031;-73
2023/03/17 06:55:26;;;;;;;35.63;32.78;;;7.30;99.90;;;;;;5225116;28;20380;-73
2023/03/17 06:57:57;;;;;;;37.80;34.60;;;7.30;99.90;;;;;;5241486;28;20029;-74
2023/03/17 07:00:29;;;;;;;37.83;34.80;;;7.40;99.90;;;;;;5233364;28;20056;-73
2023/03/17 07:03:00;;;;;;;40.78;37.83;;;7.40;99.90;;;;;;5233551;28;20009;-73
2023/03/17 07:05:32;;;;;;;37.53;34.65;;;7.40;99.90;;;;;;5242213;28;20053;-73
2023/03/17 07:08:03;;;;;;;37.53;34.58;;;7.40;99.90;;;;;;5229610;28;20096;-73
2023/03/17 07:10:35;;;;;;;38.72;36.03;;;7.30;99.90;;;;;;5246078;28;20082;-73
2023/03/17 07:13:07;;;;;;;41.40;38.42;;;7.40;99.90;;;;;;5233809;28;20009;-71
2023/03/17 07:15:41;;;;;;;42.08;38.70;;;7.30;99.90;;;;;;5240875;28;20491;-71
2023/03/17 07:18:12;;;;;;;44.58;40.72;;;7.30;99.90;;;;;;5242890;28;20032;-72
2023/03/17 07:20:43;;;;;;;40.40;37.15;;;7.40;99.90;;;;;;5233357;28;20029;-72
2023/03/17 07:23:22;;;;;;;44.28;41.03;;;7.30;99.90;;;;;;5244373;28;20043;-72
2023/03/17 07:25:54;;;;;;;41.80;38.55;;;7.30;99.90;;;;;;5240785;28;20044;-72
2023/03/17 07:28:28;;;;;;;39.15;36.10;;;7.30;99.90;;;;;;5216117;28;20033;-73
2023/03/17 07:31:13;;;;;;;40.92;37.35;;;7.30;99.90;;;;;;5227469;28;20109;-71
2023/03/17 07:33:49;;;;;;;41.13;37.78;;;7.40;99.90;;;;;;5235387;28;20019;-71
2023/03/17 07:36:26;;;;;;;36.67;33.78;;;7.40;99.90;;;;;;5233699;28;20059;-72
2023/03/17 07:39:11;;;;;;;40.92;37.55;;;7.20;99.90;;;;;;5245327;28;20070;-71
2023/03/17 07:41:53;;;;;;;39.72;36.85;;;7.50;99.90;;;;;;5234261;28;20060;-73
2023/03/17 07:44:38;;;;;;;39.08;35.70;;;7.40;99.90;;;;;;5244462;28;20471;-72
2023/03/17 07:47:13;;;;;;;38.30;35.28;;;7.20;99.90;;;;;;5228730;28;20133;-73
2023/03/17 07:49:49;;;;;;;54.40;50.10;;;7.30;99.90;;;;;;5228509;28;20025;-72
2023/03/17 07:52:23;;;;;;;42.67;38.88;;;7.40;99.90;;;;;;5228641;28;20102;-72
2023/03/17 07:54:59;;;;;;;52.72;48.50;;;7.30;99.90;;;;;;5228622;28;20075;-72
2023/03/17 07:57:36;;;;;;;39.67;36.78;;;7.30;99.90;;;;;;5228829;28;20033;-72
2023/03/17 08:00:12;;;;;;;57.72;52.80;;;7.40;99.90;;;;;;5228298;28;20112;-73
2023/03/17 08:02:52;;;;;;;37.13;34.33;;;7.20;99.90;;;;;;5223585;28;20032;-74
2023/03/17 08:05:31;;;;;;;40.50;37.10;;;7.20;99.90;;;;;;5228164;28;20020;-72
2023/03/17 08:08:05;;;;;;;39.45;36.75;;;7.30;99.90;;;;;;5228514;28;20349;-73
2023/03/17 08:10:44;;;;;;;36.97;33.85;;;7.40;99.90;;;;;;5244859;28;20056;-72
2023/03/17 08:13:17;;;;;;;39.28;36.17;;;7.10;99.90;;;;;;5231023;28;20077;-72
2023/03/17 08:16:01;;;;;;;37.97;35.28;;;7.10;99.90;;;;;;5238811;28;20045;-74
2023/03/17 08:18:35;;;;;;;34.88;31.98;;;7.00;99.90;;;;;;5232478;28;20469;-68
2023/03/17 08:21:09;;;;;;;39.42;36.33;;;7.00;99.90;;;;;;5228126;28;20009;-70
2023/03/17 08:23:43;;;;;;;43.10;39.83;;;7.00;99.90;;;;;;5228063;28;20041;-75
2023/03/17 08:26:17;;;;;;;39.55;36.55;;;7.00;99.90;;;;;;5219946;28;20697;-73
2023/03/17 08:28:51;;;;;;;40.80;37.78;;;7.10;99.90;;;;;;5210284;28;20087;-73
2023/03/17 08:31:24;;;;;;;38.70;35.53;;;7.10;99.90;;;;;;5241684;28;20491;-73
2023/03/17 08:34:03;;;;;;;39.45;36.40;;;7.00;99.90;;;;;;5227890;28;20067;-68
2023/03/17 08:36:37;;;;;;;39.65;36.13;;;7.10;99.90;;;;;;5226284;28;20038;-69
2023/03/17 08:39:10;;;;;;;39.30;35.88;;;7.00;99.90;;;;;;5232778;28;20021;-69
2023/03/17 08:41:49;;;;;;;40.03;36.97;;;7.10;99.90;;;;;;5242123;28;20008;-68
2023/03/17 08:44:25;;;;;;;38.08;35.15;;;7.10;99.90;;;;;;5233574;28;20037;-69
2023/03/17 08:46:57;;;;;;;42.42;39.20;;;7.20;99.90;;;;;;5243925;28;20051;-69
2023/03/17 08:49:39;;;;;;;40.00;37.00;;;7.10;99.90;;;;;;5235417;28;20025;-69
2023/03/17 08:52:10;;;;;;;40.58;37.78;;;7.20;99.90;;;;;;5212753;28;20579;-70
2023/03/17 08:54:45;;;;;;;38.35;35.63;;;7.10;99.90;;;;;;5223389;28;20090;-69
2023/03/17 08:57:26;;;;;;;35.75;33.20;;;7.10;99.90;;;;;;5212981;28;20025;-70
2023/03/17 09:00:09;;;;;;;39.20;36.20;;;7.10;99.90;;;;;;5215700;28;20021;-70
2023/03/17 09:02:44;;;;;;;40.55;37.50;;;7.10;99.90;;;;;;5222099;28;20029;-74
2023/03/17 09:05:19;;;;;;;43.50;40.13;;;7.00;99.90;;;;;;5212863;28;20033;-72
2023/03/17 09:07:53;;;;;;;41.72;38.38;;;7.10;99.90;;;;;;5216853;28;20033;-70
2023/03/17 09:10:27;;;;;;;46.72;42.92;;;7.00;99.90;;;;;;5221964;28;20033;-70
2023/03/17 09:13:04;;;;;;;38.90;36.03;;;7.00;99.90;;;;;;5210303;28;20104;-70
2023/03/17 09:15:45;;;;;;;41.97;38.58;;;7.10;99.90;;;;;;5218423;28;20113;-73
2023/03/17 09:18:19;;;;;;;42.95;39.83;;;7.00;99.90;;;;;;5220550;28;20037;-75
2023/03/17 09:20:59;;;;;;;44.95;41.58;;;6.90;99.90;;;;;;5210483;28;20485;-74
2023/03/17 09:23:33;;;;;;;43.42;39.90;;;7.00;99.90;;;;;;5219148;28;20029;-74
2023/03/17 09:26:06;;;;;;;41.88;38.90;;;7.00;99.90;;;;;;5218855;28;20087;-74
2023/03/17 09:28:39;;;;;;;46.47;42.88;;;6.90;99.90;;;;;;5210451;28;20040;-74
2023/03/17 09:31:13;;;;;;;89.25;80.28;;;7.00;99.90;;;;;;5221604;28;20021;-70
2023/03/17 09:33:46;;;;;;;46.65;43.00;;;7.10;99.90;;;;;;5206406;28;20017;-70
2023/03/17 09:36:19;;;;;;;44.42;41.33;;;6.90;99.90;;;;;;5207711;28;20205;-69
2023/03/17 09:38:56;;;;;;;46.50;42.95;;;7.00;99.90;;;;;;5211426;28;20367;-70
2023/03/17 09:41:52;;;;;;;45.85;42.28;;;7.00;99.90;;;;;;5219331;28;20494;-69
2023/03/17 09:45:08;;;;;;;38.72;35.85;;;7.00;99.90;;;;;;5220419;28;20052;-73
2023/03/17 09:48:05;;;;;;;44.95;41.75;;;7.10;99.90;;;;;;5205870;28;20036;-76
2023/03/17 09:50:53;;;;;;;42.53;39.53;;;6.80;99.90;;;;;;5211789;28;20045;-80
2023/03/17 09:53:33;;;;;;;44.70;41.45;;;7.00;99.90;;;;;;5233641;28;20032;-76
2023/03/17 09:56:17;;;;;;;42.67;39.40;;;7.00;99.90;;;;;;5234326;28;20407;-76
2023/03/17 09:59:09;;;;;;;48.05;43.90;;;7.00;99.90;;;;;;5236977;28;20044;-75
2023/03/17 10:01:46;;;;;;;45.28;41.78;;;6.90;99.90;;;;;;5237859;28;20063;-71
2023/03/17 10:04:20;;;;;;;48.88;45.22;;;7.00;99.90;;;;;;5252362;28;20028;-73
2023/03/17 10:07:03;;;;;;;46.10;42.65;;;7.00;99.90;;;;;;5230333;28;20056;-69
2023/03/17 10:10:10;;;;;;;44.80;41.50;;;6.90;99.90;;;;;;5238419;28;20116;-72
2023/03/17 10:12:58;;;;;;;45.30;41.97;;;6.80;99.90;;;;;;5188775;28;20045;-69
2023/03/17 10:15:57;;;;;;;47.15;43.88;;;6.90;99.90;;;;;;5220442;28;20025;-69
2023/03/17 10:18:53;;;;;;;51.05;47.20;;;6.90;99.90;;;;;;5242032;28;20037;-70
2023/03/17 10:21:47;;;;;;;46.75;43.35;;;6.90;99.90;;;;;;5195421;28;20095;-70
2023/03/17 10:24:25;;;;;;;48.30;44.75;;;7.00;99.90;;;;;;5226074;28;20033;-71
2023/03/17 10:27:15;;;;;;;41.70;38.70;;;6.80;99.90;;;;;;5241939;28;20544;-71
2023/03/17 10:29:48;;;;;;;45.35;41.95;;;6.70;99.90;;;;;;5237417;28;20132;-75
2023/03/17 10:32:22;;;;;;;43.30;40.00;;;6.90;99.90;;;;;;5213462;28;20374;-69
2023/03/17 10:35:02;;;;;;;42.42;39.47;;;6.90;99.90;;;;;;5242230;28;20024;-70
2023/03/17 10:37:43;;;;;;;43.53;40.45;;;7.00;99.90;;;;;;5211572;28;20435;-72
2023/03/17 10:40:29;;;;;;;42.25;39.35;;;7.00;99.90;;;;;;5239836;28;20387;-70
2023/03/17 10:43:15;;;;;;;46.42;43.05;;;7.00;99.90;;;;;;5236775;28;20033;-68
2023/03/17 10:46:04;;;;;;;47.08;43.80;;;6.90;99.90;;;;;;5225276;28;20032;-69
2023/03/17 10:48:37;;;;;;;47.20;43.95;;;6.80;99.90;;;;;;5244067;28;20036;-72
2023/03/17 10:51:20;;;;;;;45.15;41.42;;;7.10;99.90;;;;;;5235519;28;20056;-79
2023/03/17 10:54:00;;;;;;;39.65;36.70;;;6.80;99.90;;;;;;5235550;28;20048;-70
2023/03/17 10:56:43;;;;;;;41.78;38.78;;;6.90;99.90;;;;;;5241972;28;20115;-77
2023/03/17 10:59:43;;;;;;;41.72;38.53;;;7.00;99.90;;;;;;5225771;28;20025;-72
2023/03/17 11:02:33;;;;;;;41.22;37.95;;;7.00;99.90;;;;;;5234307;28;20061;-71
2023/03/17 11:05:26;;;;;;;39.67;36.60;;;6.90;99.90;;;;;;5225232;28;20476;-73
2023/03/17 11:08:19;;;;;;;35.92;33.30;;;6.90;99.90;;;;;;5225424;28;20055;-76
2023/03/17 11:10:59;;;;;;;33.70;31.20;;;6.90;99.90;;;;;;5227483;28;20025;-74
2023/03/17 11:13:33;;;;;;;40.35;37.33;;;7.00;99.90;;;;;;5253966;28;20104;-74
2023/03/17 11:16:23;;;;;;;34.20;31.70;;;6.90;99.90;;;;;;5214993;28;20448;-71
2023/03/17 11:19:03;;;;;;;39.00;36.27;;;7.00;99.90;;;;;;5241910;28;20017;-72
2023/03/17 11:21:58;;;;;;;37.55;35.00;;;6.90;99.90;;;;;;5207516;28;20255;-73
2023/03/17 11:24:40;;;;;;;34.58;31.77;;;7.00;99.90;;;;;;5229345;28;20044;-74
2023/03/17 11:27:26;;;;;;;33.50;31.00;;;6.80;99.90;;;;;;5225433;28;20025;-75
2023/03/17 11:30:09;;;;;;;36.38;33.67;;;6.80;99.90;;;;;;5225487;28;20017;-74
2023/03/17 11:33:04;;;;;;;34.17;31.95;;;7.00;99.90;;;;;;5241869;28;20758;-74
2023/03/17 11:36:21;;;;;;;34.25;31.98;;;6.90;99.90;;;;;;5234174;28;20024;-74
2023/03/17 11:39:27;;;;;;;36.17;33.58;;;6.90;99.90;;;;;;5232651;28;20024;-75
2023/03/17 11:42:17;;;;;;;32.35;30.05;;;6.90;99.90;;;;;;5219770;28;20167;-76
2023/03/17 11:45:08;;;;;;;35.33;32.43;;;7.00;99.90;;;;;;5223853;28;20032;-74
2023/03/17 11:47:58;;;;;;;36.15;33.53;;;7.00;99.90;;;;;;5240088;28;20383;-73
2023/03/17 11:50:52;;;;;;;37.22;34.65;;;7.10;99.90;;;;;;5244219;28;20070;-73
2023/03/17 11:54:06;;;;;;;43.63;39.67;;;6.90;99.90;;;;;;5228305;28;20036;-74
2023/03/17 11:56:49;;;;;;;52.83;47.47;;;7.00;99.90;;;;;;5219513;28;20052;-74
2023/03/17 11:59:47;;;;;;;44.17;40.28;;;7.00;99.90;;;;;;5234124;28;20013;-72
2023/03/17 12:02:29;;;;;;;36.67;33.97;;;7.10;99.90;;;;;;5237227;28;20009;-73
2023/03/17 12:05:26;;;;;;;37.97;34.78;;;7.20;99.90;;;;;;5219867;28;20025;-73
2023/03/17 12:08:18;;;;;;;38.60;35.78;;;7.10;99.90;;;;;;5232300;28;20052;-73
2023/03/17 12:11:07;;;;;;;39.30;36.20;;;7.20;99.90;;;;;;5221153;28;20124;-72
2023/03/17 12:13:52;;;;;;;38.60;35.70;;;7.20;99.90;;;;;;5238451;28;20021;-72
2023/03/17 12:16:32;;;;;;;37.05;33.95;;;7.00;99.90;;;;;;5234448;28;20338;-73
2023/03/17 12:19:18;;;;;;;38.42;35.63;;;7.00;99.90;;;;;;5230623;28;20036;-75
2023/03/17 12:22:06;;;;;;;38.25;35.05;;;7.20;99.90;;;;;;5228247;28;20111;-72
2023/03/17 12:24:49;;;;;;;40.95;37.85;;;7.10;99.90;;;;;;5233904;28;20032;-74
2023/03/17 12:28:07;;;;;;;42.70;39.10;;;7.10;99.90;;;;;;5244386;28;20127;-74
2023/03/17 12:31:02;;;;;;;41.08;37.55;;;7.20;99.90;;;;;;5230587;28;20495;-74
2023/03/17 12:34:14;;;;;;;44.45;40.85;;;7.10;99.90;;;;;;5236838;28;20529;-74
2023/03/17 12:36:53;;;;;;;42.80;38.95;;;7.10;99.90;;;;;;5164049;28;20054;-74
2023/03/17 12:39:35;;;;;;;35.00;32.33;;;7.00;99.90;;;;;;5169366;28;20034;-74
2023/03/17 12:42:44;;;;;;;39.58;36.47;;;7.00;99.90;;;;;;5164166;28;20030;-73
2023/03/17 12:45:36;;;;;;;36.38;33.65;;;7.00;99.90;;;;;;5169192;28;20034;-74
2023/03/17 12:48:45;;;;;;;39.08;36.20;;;7.00;99.90;;;;;;5168902;28;20042;-74
2023/03/17 12:51:27;;;;;;;44.17;40.63;;;7.10;99.90;;;;;;5155121;28;20042;-75
2023/03/17 12:54:00;;;;;;;35.88;33.15;;;7.00;99.90;;;;;;5163680;28;20587;-75
2023/03/17 12:56:43;;;;;;;36.40;33.58;;;7.00;99.90;;;;;;5163388;28;20045;-74
2023/03/17 12:59:26;;;;;;;40.22;37.42;;;6.90;99.90;;;;;;5166712;28;20407;-77
2023/03/17 13:02:23;;;;;;;39.97;36.80;;;7.00;99.90;;;;;;5163976;28;20034;-75
2023/03/17 13:05:05;;;;;;;39.00;35.97;;;7.00;99.90;;;;;;5152045;28;20022;-76
2023/03/17 13:07:56;;;;;;;42.85;39.67;;;7.00;99.90;;;;;;5152525;28;20034;-74
2023/03/17 13:10:47;;;;;;;38.88;35.92;;;7.00;99.90;;;;;;5188416;28;20039;-77
2023/03/17 13:13:43;;;;;;;39.58;36.97;;;6.90;99.90;;;;;;5235130;28;20074;-80
2023/03/17 13:16:38;;;;;;;40.90;38.08;;;7.00;99.90;;;;;;5232157;28;20033;-69
2023/03/17 13:19:19;;;;;;;40.03;37.05;;;7.00;99.90;;;;;;5234403;28;20035;-70
2023/03/17 13:22:04;;;;;;;42.75;39.50;;;6.90;99.90;;;;;;5234883;28;20464;-72
2023/03/17 13:24:45;;;;;;;40.75;37.97;;;7.10;99.90;;;;;;5224139;28;20019;-70
2023/03/17 13:27:31;;;;;;;39.67;36.67;;;6.80;99.90;;;;;;5236215;28;20023;-75